| time (UTC) | temp F | wind direction | speed knots | gust knots | rain 1hr in | rain 24hr in | rain mn in | humidity % | barometer mb |
| 20260906230106 | 57 | 20 | 1.7 | 4.3 | 0.00 | 0.56 | 0.40 | 89 | 1018.0 |
| 20260906224605 | 57 | 1 | 1.7 | 3.5 | 0.00 | 0.56 | 0.40 | 89 | 1018.2 |
| 20260906223102 | 56 | 4 | 0.9 | 2.6 | 0.00 | 0.56 | 0.40 | 89 | 1018.4 |
| 20260906221559 | 56 | 274 | 0.9 | 1.7 | 0.00 | 0.56 | 0.40 | 90 | 1018.4 |
| 20260906220057 | 56 | 315 | 1.7 | 3.5 | 0.00 | 0.56 | 0.40 | 90 | 1018.4 |
| 20260906214601 | 56 | 347 | 0.9 | 5.2 | 0.00 | 0.56 | 0.40 | 90 | 1018.3 |
| 20260906213058 | 56 | 42 | 2.6 | 6.1 | 0.00 | 0.56 | 0.40 | 89 | 1018.3 |
| 20260906211559 | 56 | 31 | 1.7 | 6.1 | 0.00 | 0.56 | 0.40 | 88 | 1018.1 |
| 20260906210100 | 56 | 30 | 3.5 | 5.2 | 0.00 | 0.56 | 0.40 | 88 | 1018.2 |
| 20260906204558 | 56 | 16 | 3.5 | 6.1 | 0.00 | 0.56 | 0.40 | 88 | 1018.3 |
| 20260906203057 | 55 | 11 | 2.6 | 6.1 | 0.00 | 0.56 | 0.40 | 88 | 1018.2 |
| 20260906201559 | 55 | 23 | 2.6 | 7.0 | 0.00 | 0.56 | 0.40 | 88 | 1018.5 |
| 20260906200053 | 55 | 19 | 5.2 | 7.0 | 0.00 | 0.56 | 0.40 | 88 | 1018.6 |
| 20260906194602 | 56 | 32 | 2.6 | 6.1 | 0.00 | 0.56 | 0.40 | 87 | 1018.8 |
| 20260906193100 | 56 | 8 | 3.5 | 7.0 | 0.00 | 0.56 | 0.40 | 85 | 1018.8 |
| 20260906191555 | 56 | 18 | 4.3 | 9.6 | 0.00 | 0.56 | 0.40 | 84 | 1018.9 |
| 20260906190109 | 56 | 24 | 5.2 | 8.7 | 0.00 | 0.56 | 0.40 | 85 | 1018.9 |
| 20260906184625 | 55 | 332 | 4.3 | 9.6 | 0.01 | 0.56 | 0.40 | 86 | 1018.8 |
| 20260906183057 | 55 | 30 | 6.1 | 9.6 | 0.01 | 0.56 | 0.40 | 86 | 1018.8 |
| 20260906181555 | 54 | 34 | 5.2 | 7.8 | 0.01 | 0.56 | 0.40 | 88 | 1019.3 |
| 20260906174559 | 53 | 25 | 3.5 | 7.0 | 0.00 | 0.55 | 0.39 | 92 | 1019.9 |
| 20260906173101 | 53 | 77 | 2.6 | 8.7 | 0.00 | 0.55 | 0.39 | 94 | 1020.3 |
| 20260906171559 | 52 | 42 | 2.6 | 4.3 | 0.00 | 0.55 | 0.39 | 94 | 1020.5 |
| 20260906170100 | 52 | 339 | 2.6 | 6.1 | 0.00 | 0.55 | 0.39 | 94 | 1021.0 |
| 20260906164559 | 53 | 339 | 2.6 | 5.2 | 0.00 | 0.55 | 0.39 | 93 | 1021.0 |
| 20260906163057 | 53 | 36 | 3.5 | 5.2 | 0.00 | 0.55 | 0.39 | 94 | 1020.5 |
| 20260906162053 | 52 | 15 | 4.3 | 7.0 | 0.00 | 0.55 | 0.39 | 95 | 1020.6 |
| 20260906154610 | 51 | 7 | 2.6 | 7.0 | 0.03 | 0.56 | 0.39 | 96 | 1021.0 |
| 20260906153147 | 51 | 334 | 1.7 | 5.2 | 0.18 | 0.56 | 0.39 | 96 | 1021.1 |
| 20260906151720 | 51 | 317 | 0.9 | 4.3 | 0.20 | 0.56 | 0.39 | 95 | 1021.6 |
| 20260906150059 | 51 | 276 | 1.7 | 4.3 | 0.20 | 0.56 | 0.39 | 96 | 1021.8 |
| 20260906144602 | 51 | 293 | 2.6 | 5.2 | 0.17 | 0.54 | 0.36 | 95 | 1021.8 |
| 20260906143103 | 51 | 312 | 2.6 | 7.8 | 0.02 | 0.39 | 0.21 | 96 | 1021.9 |
| 20260906141600 | 51 | 290 | 3.5 | 7.8 | 0.00 | 0.37 | 0.19 | 96 | 1021.1 |
| 20260906140056 | 52 | 21 | 6.1 | 8.7 | 0.00 | 0.37 | 0.19 | 96 | 1020.4 |
| 20260906134617 | 52 | 32 | 3.5 | 6.1 | 0.00 | 0.41 | 0.19 | 96 | 1020.4 |
| 20260906133057 | 52 | 32 | 4.3 | 7.0 | 0.00 | 0.41 | 0.19 | 96 | 1020.5 |
| 20260906131600 | 52 | 29 | 4.3 | 7.0 | 0.00 | 0.41 | 0.19 | 95 | 1020.4 |
| 20260906130132 | 52 | 34 | 3.5 | 7.8 | 0.00 | 0.41 | 0.19 | 95 | 1020.8 |
| 20260906124607 | 52 | 8 | 4.3 | 7.0 | 0.00 | 0.42 | 0.19 | 94 | 1021.1 |
| 20260906123103 | 53 | 337 | 2.6 | 8.7 | 0.00 | 0.42 | 0.19 | 93 | 1021.3 |
| 20260906121607 | 53 | 315 | 3.5 | 8.7 | 0.00 | 0.42 | 0.19 | 93 | 1021.6 |
| 20260906120106 | 55 | 53 | 7.0 | 13.0 | 0.00 | 0.42 | 0.19 | 92 | 1021.1 |
| 20260906114558 | 54 | 65 | 8.7 | 13.0 | 0.00 | 0.42 | 0.19 | 93 | 1021.0 |
| 20260906113057 | 53 | 57 | 7.8 | 12.2 | 0.00 | 0.42 | 0.19 | 93 | 1020.9 |
| 20260906111602 | 53 | 68 | 7.0 | 13.0 | 0.00 | 0.42 | 0.19 | 93 | 1020.7 |
| 20260906110057 | 52 | 58 | 6.1 | 8.7 | 0.00 | 0.42 | 0.19 | 96 | 1020.6 |
| 20260906104605 | 52 | 50 | 6.1 | 10.4 | 0.00 | 0.42 | 0.19 | 97 | 1021.1 |
| 20260906103100 | 52 | 50 | 4.3 | 9.6 | 0.00 | 0.42 | 0.19 | 97 | 1021.5 |
| 20260906101607 | 51 | 66 | 4.3 | 8.7 | 0.02 | 0.42 | 0.19 | 97 | 1021.3 |
| 20260906100107 | 51 | 58 | 3.5 | 8.7 | 0.07 | 0.42 | 0.19 | 97 | 1021.7 |
| 20260906094604 | 52 | 356 | 4.3 | 7.0 | 0.07 | 0.42 | 0.19 | 97 | 1021.7 |
| 20260906093125 | 51 | 38 | 3.5 | 9.6 | 0.07 | 0.42 | 0.19 | 97 | 1021.5 |
| 20260906091602 | 51 | 44 | 7.8 | 12.2 | 0.05 | 0.40 | 0.17 | 96 | 1021.8 |
| 20260906090106 | 51 | 285 | 0.9 | 2.6 | 0.00 | 0.35 | 0.12 | 96 | 1022.8 |
| 20260906084601 | 51 | 316 | 1.7 | 4.3 | 0.00 | 0.35 | 0.12 | 96 | 1022.7 |
| 20260906083104 | 51 | 339 | 3.5 | 10.4 | 0.00 | 0.35 | 0.12 | 96 | 1022.2 |
| 20260906081625 | 51 | 8 | 4.3 | 7.0 | 0.00 | 0.35 | 0.12 | 96 | 1022.1 |
| 20260906074557 | 51 | 354 | 4.3 | 9.6 | 0.01 | 0.35 | 0.12 | 96 | 1022.6 |
| 20260906073100 | 51 | 354 | 5.2 | 9.6 | 0.06 | 0.35 | 0.12 | 96 | 1022.4 |
| 20260906071604 | 51 | 320 | 2.6 | 5.2 | 0.09 | 0.35 | 0.12 | 95 | 1023.2 |
| 20260906070058 | 51 | 20 | 3.5 | 7.0 | 0.11 | 0.34 | 0.11 | 95 | 1023.0 |
| 20260906064602 | 52 | 331 | 1.7 | 6.1 | 0.10 | 0.33 | 0.10 | 95 | 1023.2 |
| 20260906063126 | 52 | 321 | 1.7 | 2.6 | 0.06 | 0.29 | 0.06 | 95 | 1024.2 |
| 20260906061629 | 51 | 288 | 0.0 | 0.9 | 0.05 | 0.26 | 0.03 | 95 | 1024.1 |
| 20260906060133 | 51 | 27 | 1.7 | 3.5 | 0.06 | 0.23 | 0.00 | 95 | 1023.3 |
| 20260906054735 | 51 | 56 | 0.9 | 3.5 | 0.07 | 0.23 | 0.23 | 94 | 1023.6 |
| 20260906054700 | 51 | 56 | 0.9 | 3.5 | 0.07 | 0.23 | 0.23 | 94 | 1023.6 |
| 20260906053058 | 51 | 13 | 2.6 | 5.2 | 0.07 | 0.23 | 0.23 | 94 | 1023.3 |
| 20260906051645 | 51 | 333 | 0.9 | 2.6 | 0.05 | 0.21 | 0.21 | 93 | 1023.8 |
| 20260906050057 | 52 | 216 | 0.9 | 1.7 | 0.05 | 0.17 | 0.17 | 92 | 1024.5 |
| 20260906044559 | 52 | 358 | 0.9 | 3.5 | 0.08 | 0.16 | 0.16 | 91 | 1023.1 |
| 20260906043055 | 52 | 58 | 2.6 | 6.1 | 0.09 | 0.16 | 0.16 | 90 | 1022.8 |
| 20260906041602 | 52 | 42 | 4.3 | 9.6 | 0.09 | 0.16 | 0.16 | 90 | 1022.4 |
| 20260906040106 | 53 | 55 | 0.9 | 1.7 | 0.05 | 0.12 | 0.12 | 88 | 1024.0 |
| 20260906034605 | 53 | 0 | 0.0 | 0.9 | 0.01 | 0.08 | 0.08 | 85 | 1024.2 |
| 20260906033059 | 53 | 34 | 1.7 | 3.5 | 0.00 | 0.07 | 0.07 | 83 | 1023.2 |
| 20260906031557 | 53 | 38 | 1.7 | 2.6 | 0.00 | 0.07 | 0.07 | 83 | 1023.2 |
| 20260906030100 | 53 | 33 | 2.6 | 5.2 | 0.00 | 0.07 | 0.07 | 83 | 1022.6 |
| 20260906024559 | 54 | 40 | 4.3 | 7.0 | 0.00 | 0.07 | 0.07 | 81 | 1022.1 |
| 20260906023053 | 55 | 44 | 5.2 | 7.8 | 0.00 | 0.07 | 0.07 | 80 | 1021.9 |
| 20260906021604 | 55 | 27 | 3.5 | 5.2 | 0.00 | 0.07 | 0.07 | 78 | 1022.0 |
| 20260906020101 | 56 | 23 | 4.3 | 7.0 | 0.00 | 0.07 | 0.07 | 76 | 1021.9 |
| 20260906014605 | 57 | 19 | 3.5 | 7.8 | 0.00 | 0.07 | 0.07 | 74 | 1022.0 |
| 20260906013059 | 58 | 25 | 4.3 | 7.8 | 0.00 | 0.07 | 0.07 | 72 | 1021.5 |
| 20260906011605 | 59 | 333 | 5.2 | 8.7 | 0.00 | 0.07 | 0.07 | 70 | 1021.5 |
| 20260906004604 | 61 | 353 | 3.5 | 7.0 | 0.00 | 0.07 | 0.07 | 68 | 1021.4 |
| 20260906003101 | 61 | 305 | 4.3 | 9.6 | 0.00 | 0.07 | 0.07 | 69 | 1021.6 |
| 20260906001558 | 61 | 354 | 3.5 | 7.8 | 0.00 | 0.07 | 0.07 | 68 | 1021.8 |
| 20260906000100 | 61 | 332 | 5.2 | 8.7 | 0.00 | 0.07 | 0.07 | 69 | 1022.0 |
| 20260905234555 | 60 | 44 | 5.2 | 10.4 | 0.00 | 0.07 | 0.07 | 72 | 1022.0 |
| 20260905233114 | 60 | 32 | 6.1 | 12.2 | 0.00 | 0.07 | 0.07 | 71 | 1021.9 |
| 20260905231558 | 61 | 335 | 5.2 | 10.4 | 0.00 | 0.07 | 0.07 | 70 | 1021.7 |